sensor_id;sensor_type;location;lat;lon;timestamp;P1;durP1;ratioP1;P2;durP2;ratioP2
69625;SDS011;56847;51.984;5.088;2023-04-24T00:00:24;2.60;;;1.70;;
69625;SDS011;56847;51.984;5.088;2023-04-24T00:02:52;2.60;;;2.08;;
69625;SDS011;56847;51.984;5.088;2023-04-24T00:05:24;8.85;;;2.58;;
69625;SDS011;56847;51.984;5.088;2023-04-24T00:07:51;2.28;;;1.83;;
69625;SDS011;56847;51.984;5.088;2023-04-24T00:10:21;1.98;;;1.80;;
69625;SDS011;56847;51.984;5.088;2023-04-24T00:12:48;2.20;;;1.70;;
69625;SDS011;56847;51.984;5.088;2023-04-24T00:15:15;3.85;;;2.15;;
69625;SDS011;56847;51.984;5.088;2023-04-24T00:17:42;3.90;;;2.10;;
69625;SDS011;56847;51.984;5.088;2023-04-24T00:20:13;3.13;;;2.30;;
69625;SDS011;56847;51.984;5.088;2023-04-24T00:22:41;3.85;;;2.53;;
69625;SDS011;56847;51.984;5.088;2023-04-24T00:25:11;8.37;;;2.90;;
69625;SDS011;56847;51.984;5.088;2023-04-24T00:27:38;3.28;;;2.45;;
69625;SDS011;56847;51.984;5.088;2023-04-24T00:30:05;6.47;;;3.08;;
69625;SDS011;56847;51.984;5.088;2023-04-24T00:32:34;5.32;;;3.22;;
69625;SDS011;56847;51.984;5.088;2023-04-24T00:35:02;3.53;;;2.50;;
69625;SDS011;56847;51.984;5.088;2023-04-24T00:37:29;2.63;;;2.43;;
69625;SDS011;56847;51.984;5.088;2023-04-24T00:39:57;3.83;;;2.92;;
69625;SDS011;56847;51.984;5.088;2023-04-24T00:42:26;11.25;;;2.92;;
69625;SDS011;56847;51.984;5.088;2023-04-24T00:44:54;6.50;;;2.90;;
69625;SDS011;56847;51.984;5.088;2023-04-24T00:47:22;5.15;;;2.85;;
69625;SDS011;56847;51.984;5.088;2023-04-24T00:49:52;4.33;;;2.40;;
69625;SDS011;56847;51.984;5.088;2023-04-24T00:52:19;2.63;;;2.42;;
69625;SDS011;56847;51.984;5.088;2023-04-24T00:54:47;4.40;;;3.40;;
69625;SDS011;56847;51.984;5.088;2023-04-24T00:57:14;2.47;;;2.20;;
69625;SDS011;56847;51.984;5.088;2023-04-24T00:59:42;5.15;;;3.90;;
69625;SDS011;56847;51.984;5.088;2023-04-24T01:02:10;4.73;;;2.87;;
69625;SDS011;56847;51.984;5.088;2023-04-24T01:04:38;3.95;;;3.47;;
69625;SDS011;56847;51.984;5.088;2023-04-24T01:07:06;4.53;;;4.13;;
69625;SDS011;56847;51.984;5.088;2023-04-24T01:09:38;6.78;;;3.45;;
69625;SDS011;56847;51.984;5.088;2023-04-24T01:12:10;7.10;;;3.92;;
69625;SDS011;56847;51.984;5.088;2023-04-24T01:14:39;3.07;;;2.73;;
69625;SDS011;56847;51.984;5.088;2023-04-24T01:17:07;5.13;;;3.15;;
69625;SDS011;56847;51.984;5.088;2023-04-24T01:19:36;4.75;;;4.22;;
69625;SDS011;56847;51.984;5.088;2023-04-24T01:22:08;4.05;;;3.10;;
69625;SDS011;56847;51.984;5.088;2023-04-24T01:24:42;4.22;;;3.50;;
69625;SDS011;56847;51.984;5.088;2023-04-24T01:27:11;4.27;;;3.50;;
69625;SDS011;56847;51.984;5.088;2023-04-24T01:29:39;4.15;;;3.03;;
69625;SDS011;56847;51.984;5.088;2023-04-24T01:32:08;4.68;;;4.25;;
69625;SDS011;56847;51.984;5.088;2023-04-24T01:34:37;3.78;;;3.42;;
69625;SDS011;56847;51.984;5.088;2023-04-24T01:37:04;4.63;;;4.15;;
69625;SDS011;56847;51.984;5.088;2023-04-24T01:39:32;4.07;;;3.73;;
69625;SDS011;56847;51.984;5.088;2023-04-24T01:42:00;6.15;;;4.45;;
69625;SDS011;56847;51.984;5.088;2023-04-24T01:44:31;5.45;;;4.95;;
69625;SDS011;56847;51.984;5.088;2023-04-24T01:47:00;5.65;;;4.82;;
69625;SDS011;56847;51.984;5.088;2023-04-24T01:49:29;5.63;;;5.13;;
69625;SDS011;56847;51.984;5.088;2023-04-24T01:52:01;5.93;;;5.27;;
69625;SDS011;56847;51.984;5.088;2023-04-24T01:54:31;8.68;;;5.57;;
69625;SDS011;56847;51.984;5.088;2023-04-24T01:56:58;6.95;;;5.05;;
69625;SDS011;56847;51.984;5.088;2023-04-24T01:59:32;7.82;;;4.53;;
69625;SDS011;56847;51.984;5.088;2023-04-24T02:02:03;5.03;;;4.63;;
69625;SDS011;56847;51.984;5.088;2023-04-24T02:04:30;4.87;;;3.80;;
69625;SDS011;56847;51.984;5.088;2023-04-24T02:06:57;4.65;;;3.92;;
69625;SDS011;56847;51.984;5.088;2023-04-24T02:09:25;6.95;;;5.75;;
69625;SDS011;56847;51.984;5.088;2023-04-24T02:12:01;7.25;;;5.10;;
69625;SDS011;56847;51.984;5.088;2023-04-24T02:14:29;6.07;;;5.47;;
69625;SDS011;56847;51.984;5.088;2023-04-24T02:16:56;4.73;;;4.23;;
69625;SDS011;56847;51.984;5.088;2023-04-24T02:19:24;7.43;;;4.72;;
69625;SDS011;56847;51.984;5.088;2023-04-24T02:21:53;8.02;;;5.90;;
69625;SDS011;56847;51.984;5.088;2023-04-24T02:24:20;5.63;;;5.13;;
69625;SDS011;56847;51.984;5.088;2023-04-24T02:26:47;5.00;;;4.57;;
69625;SDS011;56847;51.984;5.088;2023-04-24T02:29:20;7.63;;;5.20;;
69625;SDS011;56847;51.984;5.088;2023-04-24T02:31:49;10.65;;;5.38;;
69625;SDS011;56847;51.984;5.088;2023-04-24T02:34:18;7.93;;;5.93;;
69625;SDS011;56847;51.984;5.088;2023-04-24T02:36:47;7.35;;;5.25;;
69625;SDS011;56847;51.984;5.088;2023-04-24T02:39:14;6.57;;;5.32;;
69625;SDS011;56847;51.984;5.088;2023-04-24T02:41:45;10.97;;;4.77;;
69625;SDS011;56847;51.984;5.088;2023-04-24T02:44:14;4.22;;;3.83;;
69625;SDS011;56847;51.984;5.088;2023-04-24T02:46:46;6.88;;;6.20;;
69625;SDS011;56847;51.984;5.088;2023-04-24T02:49:21;10.05;;;6.55;;
69625;SDS011;56847;51.984;5.088;2023-04-24T02:51:53;7.15;;;6.15;;
69625;SDS011;56847;51.984;5.088;2023-04-24T02:54:21;7.63;;;4.63;;
69625;SDS011;56847;51.984;5.088;2023-04-24T02:56:49;9.40;;;5.45;;
69625;SDS011;56847;51.984;5.088;2023-04-24T02:59:17;7.18;;;5.68;;
69625;SDS011;56847;51.984;5.088;2023-04-24T03:01:48;6.88;;;6.20;;
69625;SDS011;56847;51.984;5.088;2023-04-24T03:04:21;12.00;;;7.10;;
69625;SDS011;56847;51.984;5.088;2023-04-24T03:06:52;11.40;;;6.77;;
69625;SDS011;56847;51.984;5.088;2023-04-24T03:09:24;29.70;;;8.43;;
69625;SDS011;56847;51.984;5.088;2023-04-24T03:11:52;24.13;;;7.50;;
69625;SDS011;56847;51.984;5.088;2023-04-24T03:14:19;11.02;;;6.55;;
69625;SDS011;56847;51.984;5.088;2023-04-24T03:16:58;18.27;;;5.50;;
69625;SDS011;56847;51.984;5.088;2023-04-24T03:19:31;13.37;;;4.93;;
69625;SDS011;56847;51.984;5.088;2023-04-24T03:22:06;6.55;;;4.45;;
69625;SDS011;56847;51.984;5.088;2023-04-24T03:24:38;9.15;;;4.75;;
69625;SDS011;56847;51.984;5.088;2023-04-24T03:27:12;6.65;;;3.90;;
69625;SDS011;56847;51.984;5.088;2023-04-24T03:29:55;6.63;;;5.15;;
69625;SDS011;56847;51.984;5.088;2023-04-24T03:32:39;8.77;;;4.80;;
69625;SDS011;56847;51.984;5.088;2023-04-24T03:35:09;8.95;;;5.30;;
69625;SDS011;56847;51.984;5.088;2023-04-24T03:37:40;8.07;;;6.15;;
69625;SDS011;56847;51.984;5.088;2023-04-24T03:40:37;9.55;;;5.72;;
69625;SDS011;56847;51.984;5.088;2023-04-24T03:43:36;8.40;;;6.40;;
69625;SDS011;56847;51.984;5.088;2023-04-24T03:46:10;7.93;;;6.07;;
69625;SDS011;56847;51.984;5.088;2023-04-24T03:48:55;8.65;;;6.97;;
69625;SDS011;56847;51.984;5.088;2023-04-24T03:51:27;11.93;;;7.18;;
69625;SDS011;56847;51.984;5.088;2023-04-24T03:54:10;6.85;;;6.15;;
69625;SDS011;56847;51.984;5.088;2023-04-24T03:56:41;6.13;;;5.53;;
69625;SDS011;56847;51.984;5.088;2023-04-24T03:59:08;7.47;;;4.00;;
69625;SDS011;56847;51.984;5.088;2023-04-24T04:01:38;5.65;;;4.88;;
69625;SDS011;56847;51.984;5.088;2023-04-24T04:04:14;7.78;;;4.72;;
69625;SDS011;56847;51.984;5.088;2023-04-24T04:06:47;2.92;;;2.65;;
69625;SDS011;56847;51.984;5.088;2023-04-24T04:09:19;4.07;;;2.47;;
69625;SDS011;56847;51.984;5.088;2023-04-24T04:11:46;3.73;;;1.87;;
69625;SDS011;56847;51.984;5.088;2023-04-24T04:14:15;4.10;;;2.00;;
69625;SDS011;56847;51.984;5.088;2023-04-24T04:16:45;3.00;;;2.05;;
69625;SDS011;56847;51.984;5.088;2023-04-24T04:19:13;1.95;;;1.77;;
69625;SDS011;56847;51.984;5.088;2023-04-24T04:21:42;3.10;;;2.15;;
69625;SDS011;56847;51.984;5.088;2023-04-24T04:24:18;3.80;;;1.43;;
69625;SDS011;56847;51.984;5.088;2023-04-24T04:26:47;6.63;;;1.90;;
69625;SDS011;56847;51.984;5.088;2023-04-24T04:29:27;12.45;;;2.05;;
69625;SDS011;56847;51.984;5.088;2023-04-24T04:32:04;2.40;;;1.50;;
69625;SDS011;56847;51.984;5.088;2023-04-24T04:34:34;4.57;;;2.10;;
69625;SDS011;56847;51.984;5.088;2023-04-24T04:37:05;6.93;;;1.47;;
69625;SDS011;56847;51.984;5.088;2023-04-24T04:39:46;8.20;;;1.67;;
69625;SDS011;56847;51.984;5.088;2023-04-24T04:42:20;1.85;;;1.70;;
69625;SDS011;56847;51.984;5.088;2023-04-24T04:44:50;7.97;;;2.03;;
69625;SDS011;56847;51.984;5.088;2023-04-24T04:47:24;13.95;;;1.83;;
69625;SDS011;56847;51.984;5.088;2023-04-24T04:50:00;4.70;;;1.30;;
69625;SDS011;56847;51.984;5.088;2023-04-24T04:52:27;3.55;;;1.58;;
69625;SDS011;56847;51.984;5.088;2023-04-24T04:55:07;2.92;;;1.88;;
69625;SDS011;56847;51.984;5.088;2023-04-24T04:58:04;2.15;;;1.73;;
69625;SDS011;56847;51.984;5.088;2023-04-24T05:00:31;2.70;;;2.05;;
69625;SDS011;56847;51.984;5.088;2023-04-24T05:03:07;1.60;;;1.10;;
69625;SDS011;56847;51.984;5.088;2023-04-24T05:05:49;1.55;;;1.45;;
69625;SDS011;56847;51.984;5.088;2023-04-24T05:08:17;4.32;;;1.98;;
69625;SDS011;56847;51.984;5.088;2023-04-24T05:10:53;8.68;;;1.92;;
69625;SDS011;56847;51.984;5.088;2023-04-24T05:13:21;2.78;;;1.60;;
69625;SDS011;56847;51.984;5.088;2023-04-24T05:16:08;1.90;;;1.20;;
69625;SDS011;56847;51.984;5.088;2023-04-24T05:18:35;3.03;;;1.88;;
69625;SDS011;56847;51.984;5.088;2023-04-24T05:21:04;9.65;;;2.03;;
69625;SDS011;56847;51.984;5.088;2023-04-24T05:23:31;4.38;;;1.90;;
69625;SDS011;56847;51.984;5.088;2023-04-24T05:25:59;2.78;;;2.45;;
69625;SDS011;56847;51.984;5.088;2023-04-24T05:28:26;5.40;;;1.43;;
69625;SDS011;56847;51.984;5.088;2023-04-24T05:31:03;3.88;;;1.67;;
69625;SDS011;56847;51.984;5.088;2023-04-24T05:33:31;8.10;;;2.33;;
69625;SDS011;56847;51.984;5.088;2023-04-24T05:35:58;2.22;;;1.50;;
69625;SDS011;56847;51.984;5.088;2023-04-24T05:38:25;2.50;;;2.30;;
69625;SDS011;56847;51.984;5.088;2023-04-24T05:40:52;3.17;;;2.07;;
69625;SDS011;56847;51.984;5.088;2023-04-24T05:43:19;3.65;;;1.75;;
69625;SDS011;56847;51.984;5.088;2023-04-24T05:45:46;3.58;;;2.47;;
69625;SDS011;56847;51.984;5.088;2023-04-24T05:48:13;7.70;;;2.28;;
69625;SDS011;56847;51.984;5.088;2023-04-24T05:50:40;9.18;;;2.60;;
69625;SDS011;56847;51.984;5.088;2023-04-24T05:53:07;2.90;;;1.80;;
69625;SDS011;56847;51.984;5.088;2023-04-24T05:55:37;9.15;;;2.42;;
69625;SDS011;56847;51.984;5.088;2023-04-24T05:58:04;4.03;;;1.85;;
69625;SDS011;56847;51.984;5.088;2023-04-24T06:00:33;3.30;;;1.60;;
69625;SDS011;56847;51.984;5.088;2023-04-24T06:03:05;5.15;;;2.25;;
69625;SDS011;56847;51.984;5.088;2023-04-24T06:05:32;4.73;;;2.27;;
69625;SDS011;56847;51.984;5.088;2023-04-24T06:08:01;8.07;;;2.60;;
69625;SDS011;56847;51.984;5.088;2023-04-24T06:10:32;5.63;;;3.20;;
69625;SDS011;56847;51.984;5.088;2023-04-24T06:13:00;11.65;;;4.95;;
69625;SDS011;56847;51.984;5.088;2023-04-24T06:15:29;3.90;;;3.28;;
69625;SDS011;56847;51.984;5.088;2023-04-24T06:18:05;6.97;;;4.40;;
69625;SDS011;56847;51.984;5.088;2023-04-24T06:20:39;9.68;;;6.85;;
69625;SDS011;56847;51.984;5.088;2023-04-24T06:23:10;16.08;;;8.50;;
69625;SDS011;56847;51.984;5.088;2023-04-24T06:25:42;19.05;;;9.75;;
69625;SDS011;56847;51.984;5.088;2023-04-24T06:28:10;18.00;;;10.00;;
69625;SDS011;56847;51.984;5.088;2023-04-24T06:30:37;17.67;;;10.20;;
69625;SDS011;56847;51.984;5.088;2023-04-24T06:33:04;16.42;;;10.35;;
69625;SDS011;56847;51.984;5.088;2023-04-24T06:35:45;16.58;;;9.45;;
69625;SDS011;56847;51.984;5.088;2023-04-24T06:38:12;20.08;;;10.38;;
69625;SDS011;56847;51.984;5.088;2023-04-24T06:40:42;18.42;;;9.45;;
69625;SDS011;56847;51.984;5.088;2023-04-24T06:43:10;23.80;;;12.20;;
69625;SDS011;56847;51.984;5.088;2023-04-24T06:45:37;21.95;;;11.57;;
69625;SDS011;56847;51.984;5.088;2023-04-24T06:48:06;21.45;;;9.20;;
69625;SDS011;56847;51.984;5.088;2023-04-24T06:50:33;19.75;;;8.82;;
69625;SDS011;56847;51.984;5.088;2023-04-24T06:53:01;27.42;;;12.07;;
69625;SDS011;56847;51.984;5.088;2023-04-24T06:55:28;21.77;;;9.00;;
69625;SDS011;56847;51.984;5.088;2023-04-24T06:57:55;28.75;;;11.55;;
69625;SDS011;56847;51.984;5.088;2023-04-24T07:00:22;31.17;;;10.88;;
69625;SDS011;56847;51.984;5.088;2023-04-24T07:03:01;27.05;;;11.25;;
69625;SDS011;56847;51.984;5.088;2023-04-24T07:05:30;25.85;;;11.68;;
69625;SDS011;56847;51.984;5.088;2023-04-24T07:08:00;34.73;;;11.23;;
69625;SDS011;56847;51.984;5.088;2023-04-24T07:10:29;32.92;;;11.13;;
69625;SDS011;56847;51.984;5.088;2023-04-24T07:12:56;26.80;;;8.90;;
69625;SDS011;56847;51.984;5.088;2023-04-24T07:15:23;31.17;;;9.45;;
69625;SDS011;56847;51.984;5.088;2023-04-24T07:17:52;25.65;;;8.57;;
69625;SDS011;56847;51.984;5.088;2023-04-24T07:20:19;23.53;;;8.97;;
69625;SDS011;56847;51.984;5.088;2023-04-24T07:22:46;35.08;;;8.80;;
69625;SDS011;56847;51.984;5.088;2023-04-24T07:25:19;26.13;;;7.43;;
69625;SDS011;56847;51.984;5.088;2023-04-24T07:27:46;24.05;;;7.15;;
69625;SDS011;56847;51.984;5.088;2023-04-24T07:30:13;25.70;;;7.60;;
69625;SDS011;56847;51.984;5.088;2023-04-24T07:32:40;27.33;;;7.03;;
69625;SDS011;56847;51.984;5.088;2023-04-24T07:35:07;36.20;;;7.50;;
69625;SDS011;56847;51.984;5.088;2023-04-24T07:37:36;33.13;;;8.00;;
69625;SDS011;56847;51.984;5.088;2023-04-24T07:40:03;26.42;;;7.43;;
69625;SDS011;56847;51.984;5.088;2023-04-24T07:42:31;31.77;;;7.47;;
69625;SDS011;56847;51.984;5.088;2023-04-24T07:45:01;15.67;;;5.80;;
69625;SDS011;56847;51.984;5.088;2023-04-24T07:47:31;15.60;;;6.00;;
69625;SDS011;56847;51.984;5.088;2023-04-24T07:49:59;31.25;;;7.63;;
69625;SDS011;56847;51.984;5.088;2023-04-24T07:52:29;34.08;;;7.07;;
69625;SDS011;56847;51.984;5.088;2023-04-24T07:55:00;29.15;;;5.93;;
69625;SDS011;56847;51.984;5.088;2023-04-24T07:57:28;23.70;;;5.53;;
69625;SDS011;56847;51.984;5.088;2023-04-24T07:59:55;32.65;;;5.60;;
69625;SDS011;56847;51.984;5.088;2023-04-24T08:02:22;21.73;;;5.75;;
69625;SDS011;56847;51.984;5.088;2023-04-24T08:04:53;22.10;;;5.38;;
69625;SDS011;56847;51.984;5.088;2023-04-24T08:07:21;22.42;;;4.95;;
69625;SDS011;56847;51.984;5.088;2023-04-24T08:09:48;21.40;;;4.10;;
69625;SDS011;56847;51.984;5.088;2023-04-24T08:12:15;28.20;;;5.03;;
69625;SDS011;56847;51.984;5.088;2023-04-24T08:14:44;18.70;;;3.75;;
69625;SDS011;56847;51.984;5.088;2023-04-24T08:17:11;23.52;;;4.50;;
69625;SDS011;56847;51.984;5.088;2023-04-24T08:19:45;27.48;;;5.63;;
69625;SDS011;56847;51.984;5.088;2023-04-24T08:22:15;19.27;;;4.27;;
69625;SDS011;56847;51.984;5.088;2023-04-24T08:24:45;19.00;;;4.25;;
69625;SDS011;56847;51.984;5.088;2023-04-24T08:27:15;21.00;;;4.57;;
69625;SDS011;56847;51.984;5.088;2023-04-24T08:29:44;20.52;;;3.95;;
69625;SDS011;56847;51.984;5.088;2023-04-24T08:32:12;18.95;;;4.13;;
69625;SDS011;56847;51.984;5.088;2023-04-24T08:34:39;16.57;;;3.90;;
69625;SDS011;56847;51.984;5.088;2023-04-24T08:37:15;16.20;;;3.47;;
69625;SDS011;56847;51.984;5.088;2023-04-24T08:39:44;16.25;;;3.67;;
69625;SDS011;56847;51.984;5.088;2023-04-24T08:42:11;25.80;;;3.85;;
69625;SDS011;56847;51.984;5.088;2023-04-24T08:44:44;20.45;;;4.28;;
69625;SDS011;56847;51.984;5.088;2023-04-24T08:47:11;21.67;;;3.30;;
69625;SDS011;56847;51.984;5.088;2023-04-24T08:49:41;7.18;;;3.38;;
69625;SDS011;56847;51.984;5.088;2023-04-24T08:52:10;15.07;;;4.03;;
69625;SDS011;56847;51.984;5.088;2023-04-24T08:54:40;11.52;;;3.60;;
69625;SDS011;56847;51.984;5.088;2023-04-24T08:57:14;11.15;;;4.18;;
69625;SDS011;56847;51.984;5.088;2023-04-24T08:59:41;12.20;;;3.33;;
69625;SDS011;56847;51.984;5.088;2023-04-24T09:02:10;12.40;;;3.53;;
69625;SDS011;56847;51.984;5.088;2023-04-24T09:04:38;7.05;;;3.15;;
69625;SDS011;56847;51.984;5.088;2023-04-24T09:07:07;13.63;;;3.42;;
69625;SDS011;56847;51.984;5.088;2023-04-24T09:09:35;13.02;;;3.22;;
69625;SDS011;56847;51.984;5.088;2023-04-24T09:12:05;11.87;;;3.80;;
69625;SDS011;56847;51.984;5.088;2023-04-24T09:14:32;10.48;;;3.55;;
69625;SDS011;56847;51.984;5.088;2023-04-24T09:16:59;8.20;;;3.15;;
69625;SDS011;56847;51.984;5.088;2023-04-24T09:19:26;9.25;;;3.40;;
69625;SDS011;56847;51.984;5.088;2023-04-24T09:21:54;9.70;;;3.22;;
69625;SDS011;56847;51.984;5.088;2023-04-24T09:24:22;12.93;;;2.67;;
69625;SDS011;56847;51.984;5.088;2023-04-24T09:26:55;7.55;;;3.17;;
69625;SDS011;56847;51.984;5.088;2023-04-24T09:29:26;9.65;;;3.25;;
69625;SDS011;56847;51.984;5.088;2023-04-24T09:31:53;6.80;;;2.95;;
69625;SDS011;56847;51.984;5.088;2023-04-24T09:34:21;4.68;;;2.58;;
69625;SDS011;56847;51.984;5.088;2023-04-24T09:36:49;5.90;;;2.53;;
69625;SDS011;56847;51.984;5.088;2023-04-24T09:39:20;12.77;;;3.05;;
69625;SDS011;56847;51.984;5.088;2023-04-24T09:41:51;13.55;;;2.80;;
69625;SDS011;56847;51.984;5.088;2023-04-24T09:44:26;11.90;;;3.28;;
69625;SDS011;56847;51.984;5.088;2023-04-24T09:46:55;10.27;;;3.80;;
69625;SDS011;56847;51.984;5.088;2023-04-24T09:49:25;11.10;;;2.77;;
69625;SDS011;56847;51.984;5.088;2023-04-24T09:52:06;5.15;;;2.63;;
69625;SDS011;56847;51.984;5.088;2023-04-24T09:54:35;10.35;;;2.85;;
69625;SDS011;56847;51.984;5.088;2023-04-24T09:57:07;13.18;;;2.95;;
69625;SDS011;56847;51.984;5.088;2023-04-24T09:59:41;10.70;;;3.25;;
69625;SDS011;56847;51.984;5.088;2023-04-24T10:02:17;10.57;;;2.90;;
69625;SDS011;56847;51.984;5.088;2023-04-24T10:04:56;6.68;;;2.08;;
69625;SDS011;56847;51.984;5.088;2023-04-24T10:07:26;5.07;;;2.55;;
69625;SDS011;56847;51.984;5.088;2023-04-24T10:09:54;11.15;;;2.58;;
69625;SDS011;56847;51.984;5.088;2023-04-24T10:12:25;5.63;;;2.00;;
69625;SDS011;56847;51.984;5.088;2023-04-24T10:14:53;6.83;;;2.37;;
69625;SDS011;56847;51.984;5.088;2023-04-24T10:17:23;8.43;;;2.17;;
69625;SDS011;56847;51.984;5.088;2023-04-24T10:19:52;8.50;;;2.50;;
69625;SDS011;56847;51.984;5.088;2023-04-24T10:22:20;4.18;;;1.67;;
69625;SDS011;56847;51.984;5.088;2023-04-24T10:24:49;2.35;;;2.08;;
69625;SDS011;56847;51.984;5.088;2023-04-24T10:27:18;11.93;;;2.00;;
69625;SDS011;56847;51.984;5.088;2023-04-24T10:29:48;5.25;;;1.95;;
69625;SDS011;56847;51.984;5.088;2023-04-24T10:32:17;3.22;;;2.20;;
69625;SDS011;56847;51.984;5.088;2023-04-24T10:34:45;7.40;;;1.90;;
69625;SDS011;56847;51.984;5.088;2023-04-24T10:37:13;6.22;;;2.38;;
69625;SDS011;56847;51.984;5.088;2023-04-24T10:39:41;2.47;;;1.57;;
69625;SDS011;56847;51.984;5.088;2023-04-24T10:42:15;8.55;;;2.08;;
69625;SDS011;56847;51.984;5.088;2023-04-24T10:44:43;8.60;;;2.65;;
69625;SDS011;56847;51.984;5.088;2023-04-24T10:47:13;9.38;;;2.33;;
69625;SDS011;56847;51.984;5.088;2023-04-24T10:49:40;5.80;;;1.90;;
69625;SDS011;56847;51.984;5.088;2023-04-24T10:52:08;5.60;;;1.60;;
69625;SDS011;56847;51.984;5.088;2023-04-24T10:54:44;7.45;;;1.70;;
69625;SDS011;56847;51.984;5.088;2023-04-24T10:59:52;7.47;;;1.92;;
69625;SDS011;56847;51.984;5.088;2023-04-24T11:02:47;2.92;;;1.75;;
69625;SDS011;56847;51.984;5.088;2023-04-24T11:05:17;7.13;;;1.43;;
69625;SDS011;56847;51.984;5.088;2023-04-24T11:13:27;4.68;;;1.40;;
69625;SDS011;56847;51.984;5.088;2023-04-24T11:16:15;8.30;;;2.00;;
69625;SDS011;56847;51.984;5.088;2023-04-24T11:18:51;7.60;;;1.77;;
69625;SDS011;56847;51.984;5.088;2023-04-24T11:21:30;3.85;;;1.90;;
69625;SDS011;56847;51.984;5.088;2023-04-24T11:24:16;7.82;;;2.50;;
69625;SDS011;56847;51.984;5.088;2023-04-24T11:29:45;4.35;;;1.85;;
69625;SDS011;56847;51.984;5.088;2023-04-24T11:32:24;7.00;;;1.73;;
69625;SDS011;56847;51.984;5.088;2023-04-24T11:35:05;6.53;;;1.98;;
69625;SDS011;56847;51.984;5.088;2023-04-24T11:37:47;9.35;;;2.25;;
69625;SDS011;56847;51.984;5.088;2023-04-24T11:40:37;13.75;;;2.78;;
69625;SDS011;56847;51.984;5.088;2023-04-24T11:43:06;7.65;;;2.38;;
69625;SDS011;56847;51.984;5.088;2023-04-24T11:45:34;6.90;;;1.70;;
69625;SDS011;56847;51.984;5.088;2023-04-24T11:48:02;6.07;;;2.08;;
69625;SDS011;56847;51.984;5.088;2023-04-24T11:50:30;8.10;;;1.90;;
69625;SDS011;56847;51.984;5.088;2023-04-24T11:52:57;13.05;;;2.28;;
69625;SDS011;56847;51.984;5.088;2023-04-24T11:55:26;5.25;;;2.05;;
69625;SDS011;56847;51.984;5.088;2023-04-24T11:57:57;9.97;;;1.93;;
69625;SDS011;56847;51.984;5.088;2023-04-24T12:00:27;5.57;;;1.80;;
69625;SDS011;56847;51.984;5.088;2023-04-24T12:03:11;9.77;;;2.72;;
69625;SDS011;56847;51.984;5.088;2023-04-24T12:05:41;6.20;;;1.85;;
69625;SDS011;56847;51.984;5.088;2023-04-24T12:08:08;2.83;;;2.10;;
69625;SDS011;56847;51.984;5.088;2023-04-24T12:10:36;7.77;;;2.00;;
69625;SDS011;56847;51.984;5.088;2023-04-24T12:13:03;3.55;;;2.05;;
69625;SDS011;56847;51.984;5.088;2023-04-24T12:15:30;6.18;;;2.65;;
69625;SDS011;56847;51.984;5.088;2023-04-24T12:18:00;6.22;;;2.20;;
69625;SDS011;56847;51.984;5.088;2023-04-24T12:20:29;5.55;;;2.17;;
69625;SDS011;56847;51.984;5.088;2023-04-24T12:22:58;8.03;;;2.03;;
69625;SDS011;56847;51.984;5.088;2023-04-24T12:25:32;6.43;;;2.00;;
69625;SDS011;56847;51.984;5.088;2023-04-24T12:30:51;9.50;;;2.00;;
69625;SDS011;56847;51.984;5.088;2023-04-24T12:33:19;12.82;;;3.10;;
69625;SDS011;56847;51.984;5.088;2023-04-24T12:35:51;17.00;;;2.60;;
69625;SDS011;56847;51.984;5.088;2023-04-24T12:38:22;4.82;;;2.33;;
69625;SDS011;56847;51.984;5.088;2023-04-24T12:41:08;7.50;;;2.88;;
69625;SDS011;56847;51.984;5.088;2023-04-24T21:04:56;17.75;;;2.97;;
69625;SDS011;56847;51.984;5.088;2023-04-24T21:07:26;8.90;;;2.90;;
69625;SDS011;56847;51.984;5.088;2023-04-24T21:09:53;8.93;;;2.65;;
69625;SDS011;56847;51.984;5.088;2023-04-24T21:12:20;10.23;;;3.10;;
69625;SDS011;56847;51.984;5.088;2023-04-24T21:14:47;11.80;;;2.88;;
69625;SDS011;56847;51.984;5.088;2023-04-24T21:17:16;10.55;;;2.63;;
69625;SDS011;56847;51.984;5.088;2023-04-24T21:19:43;8.30;;;2.10;;
69625;SDS011;56847;51.984;5.088;2023-04-24T21:22:10;7.53;;;2.30;;
69625;SDS011;56847;51.984;5.088;2023-04-24T21:24:38;12.82;;;3.10;;
69625;SDS011;56847;51.984;5.088;2023-04-24T21:27:06;8.55;;;3.00;;
69625;SDS011;56847;51.984;5.088;2023-04-24T21:29:34;10.52;;;3.05;;
69625;SDS011;56847;51.984;5.088;2023-04-24T21:32:02;5.67;;;2.53;;
69625;SDS011;56847;51.984;5.088;2023-04-24T21:34:29;15.40;;;2.70;;
69625;SDS011;56847;51.984;5.088;2023-04-24T21:36:56;17.58;;;3.60;;
69625;SDS011;56847;51.984;5.088;2023-04-24T21:39:23;14.52;;;2.50;;
69625;SDS011;56847;51.984;5.088;2023-04-24T21:41:50;14.65;;;4.05;;
69625;SDS011;56847;51.984;5.088;2023-04-24T21:44:18;11.43;;;2.43;;
69625;SDS011;56847;51.984;5.088;2023-04-24T21:46:44;14.05;;;2.97;;
69625;SDS011;56847;51.984;5.088;2023-04-24T21:49:12;10.07;;;2.88;;
69625;SDS011;56847;51.984;5.088;2023-04-24T21:51:39;12.15;;;3.25;;
69625;SDS011;56847;51.984;5.088;2023-04-24T21:54:06;13.20;;;3.42;;
69625;SDS011;56847;51.984;5.088;2023-04-24T21:56:35;17.23;;;3.50;;
69625;SDS011;56847;51.984;5.088;2023-04-24T21:59:02;9.93;;;2.75;;
69625;SDS011;56847;51.984;5.088;2023-04-24T22:01:30;16.30;;;3.40;;
69625;SDS011;56847;51.984;5.088;2023-04-24T22:04:00;14.25;;;2.85;;
69625;SDS011;56847;51.984;5.088;2023-04-24T22:06:31;11.50;;;3.47;;
69625;SDS011;56847;51.984;5.088;2023-04-24T22:09:01;12.10;;;3.03;;
69625;SDS011;56847;51.984;5.088;2023-04-24T22:11:30;12.93;;;3.22;;
69625;SDS011;56847;51.984;5.088;2023-04-24T22:13:57;8.75;;;3.08;;
69625;SDS011;56847;51.984;5.088;2023-04-24T22:16:24;15.73;;;3.35;;
69625;SDS011;56847;51.984;5.088;2023-04-24T22:18:53;15.85;;;3.70;;
69625;SDS011;56847;51.984;5.088;2023-04-24T22:21:20;20.27;;;3.23;;
69625;SDS011;56847;51.984;5.088;2023-04-24T22:23:48;17.10;;;3.55;;
69625;SDS011;56847;51.984;5.088;2023-04-24T22:26:16;13.52;;;3.67;;
69625;SDS011;56847;51.984;5.088;2023-04-24T22:28:43;14.07;;;3.50;;
69625;SDS011;56847;51.984;5.088;2023-04-24T22:31:13;17.15;;;3.53;;
69625;SDS011;56847;51.984;5.088;2023-04-24T22:33:41;18.70;;;3.93;;
69625;SDS011;56847;51.984;5.088;2023-04-24T22:36:09;14.90;;;3.38;;
69625;SDS011;56847;51.984;5.088;2023-04-24T22:38:39;20.33;;;4.63;;
69625;SDS011;56847;51.984;5.088;2023-04-24T22:41:06;8.48;;;2.83;;
69625;SDS011;56847;51.984;5.088;2023-04-24T22:43:35;13.60;;;4.45;;
69625;SDS011;56847;51.984;5.088;2023-04-24T22:46:04;17.33;;;3.63;;
69625;SDS011;56847;51.984;5.088;2023-04-24T22:48:31;17.92;;;4.28;;
69625;SDS011;56847;51.984;5.088;2023-04-24T22:51:02;13.18;;;4.32;;
69625;SDS011;56847;51.984;5.088;2023-04-24T22:53:29;11.63;;;4.28;;
69625;SDS011;56847;51.984;5.088;2023-04-24T22:55:56;7.03;;;3.05;;
69625;SDS011;56847;51.984;5.088;2023-04-24T22:58:23;20.57;;;3.30;;
69625;SDS011;56847;51.984;5.088;2023-04-24T23:00:50;15.18;;;4.63;;
69625;SDS011;56847;51.984;5.088;2023-04-24T23:03:18;11.48;;;4.00;;
69625;SDS011;56847;51.984;5.088;2023-04-24T23:05:45;13.18;;;4.18;;
69625;SDS011;56847;51.984;5.088;2023-04-24T23:08:12;20.95;;;5.50;;
69625;SDS011;56847;51.984;5.088;2023-04-24T23:10:40;23.57;;;4.73;;
69625;SDS011;56847;51.984;5.088;2023-04-24T23:13:07;24.17;;;5.25;;
69625;SDS011;56847;51.984;5.088;2023-04-24T23:15:41;16.42;;;5.22;;
69625;SDS011;56847;51.984;5.088;2023-04-24T23:18:08;19.98;;;4.40;;
69625;SDS011;56847;51.984;5.088;2023-04-24T23:20:39;19.58;;;4.53;;
69625;SDS011;56847;51.984;5.088;2023-04-24T23:23:06;23.57;;;4.57;;
69625;SDS011;56847;51.984;5.088;2023-04-24T23:25:34;24.25;;;4.90;;
69625;SDS011;56847;51.984;5.088;2023-04-24T23:28:03;23.00;;;5.13;;
69625;SDS011;56847;51.984;5.088;2023-04-24T23:30:31;22.20;;;6.07;;
69625;SDS011;56847;51.984;5.088;2023-04-24T23:33:00;15.95;;;5.25;;